KAQW/AQW METAR and TAF weather

Enter ICAO airport designator
Station Type Date Time Source
KAQW METAR 2023/02/04 01:52 UTC NOAA

KAQW 040152Z AUTO 31010G20KT 10SM OVC060 M22/M33 A3024 RMK AO2 SLP259 T12221328


Station Type Date Time Source
KAQW Decoded METAR 2023/02/04 01:52 UTC NOAA

N ADAMS HARRIMAN-AND-WEST, MA, United States (KAQW) 42-42N 073-10W 201M
Feb 03, 2023 - 08:52 PM EST / 2023.02.04 0152 UTC
Wind: from the NW (310 degrees) at 12 MPH (10 KT) gusting to 23 MPH (20 KT):0
Visibility: 10 mile(s):0
Sky conditions: overcast
Temperature: -8.0 F (-22.2 C)
Windchill: -27 F (-33 C):2
Dew Point: -27.0 F (-32.8 C)
Relative Humidity: 37%
Pressure (altimeter): 30.24 in. Hg (1024 hPa)
ob: KAQW 040152Z AUTO 31010G20KT 10SM OVC060 M22/M33 A3024 RMK AO2 SLP259 T12221328
cycle: 2

Station Type Date Time Source
KAQW TAF UTC NOAA

Error!

Example: see airport list